Time;durP1;ratioP1;P1;durP2;ratioP2;P2;SDS_P1;SDS_P2;PMS_P1;PMS_P2;Temp;Humidity;BMP_temperature;BMP_pressure;BME280_temperature;BME280_humidity;BME280_pressure;Samples;Min_cycle;Max_cycle;Signal;HPM_P1;HPM_P2
2022/04/18 00:01:24;;;;;;;2.67;1.90;;;13.10;44.70;;;-142.21;66.00;112049.66;5072198;28;20448;-74
2022/04/18 00:03:53;;;;;;;2.37;1.87;;;13.00;44.90;;;-142.21;65.14;112049.66;5075837;28;20515;-73
2022/04/18 00:06:20;;;;;;;3.17;2.60;;;13.00;45.00;;;-142.21;65.89;112049.66;5085963;28;20533;-74
2022/04/18 00:08:47;;;;;;;2.40;2.20;;;12.90;45.40;;;-142.21;68.06;112049.66;5086179;28;20514;-74
2022/04/18 00:11:14;;;;;;;2.80;2.30;;;12.90;45.20;;;-142.21;70.08;112049.66;5075586;28;20935;-73
2022/04/18 00:13:41;;;;;;;3.37;2.17;;;13.00;45.10;;;-142.21;66.79;112049.66;5087365;28;20454;-74
2022/04/18 00:16:10;;;;;;;4.60;2.30;;;12.90;45.30;;;-142.21;67.01;112049.66;5093764;28;20488;-74
2022/04/18 00:18:37;;;;;;;2.27;2.07;;;12.90;45.30;;;-142.21;68.19;112049.66;5082360;28;20574;-74
2022/04/18 00:21:05;;;;;;;3.73;2.57;;;12.80;45.40;;;-142.21;67.05;112049.66;5075497;28;20447;-74
2022/04/18 00:23:32;;;;;;;2.57;2.30;;;12.80;45.20;;;-142.21;66.80;112049.66;5076416;28;20457;-74
2022/04/18 00:25:59;;;;;;;2.57;2.30;;;12.80;44.90;;;-142.21;67.08;112049.66;5088066;28;20526;-73
2022/04/18 00:28:26;;;;;;;2.93;2.63;;;12.70;45.60;;;-142.21;66.90;112049.66;5093365;28;20482;-74
2022/04/18 00:30:54;;;;;;;3.63;2.80;;;12.80;45.00;;;-142.21;66.80;112049.66;5073680;28;20473;-74
2022/04/18 00:33:22;;;;;;;3.33;2.30;;;12.70;44.70;;;-142.21;68.78;112049.66;5095279;28;20495;-74
2022/04/18 00:35:50;;;;;;;2.50;2.20;;;12.70;45.20;;;-142.21;69.42;112049.66;5094378;28;20488;-73
2022/04/18 00:38:17;;;;;;;2.80;2.30;;;12.70;45.00;;;-142.21;68.73;112049.66;5074826;28;20444;-74
2022/04/18 00:40:44;;;;;;;2.50;2.23;;;12.60;45.20;;;-142.21;67.69;112049.66;5081108;28;20448;-73
2022/04/18 00:43:12;;;;;;;4.97;2.30;;;12.60;45.00;;;-142.21;69.92;112049.66;5094238;28;21013;-74
2022/04/18 00:45:40;;;;;;;3.07;2.47;;;12.60;45.50;;;-142.21;74.39;112049.66;5091764;28;20436;-73
2022/04/18 00:48:08;;;;;;;3.47;2.30;;;12.50;46.40;;;-142.21;73.72;112049.66;5079042;28;20521;-73
2022/04/18 00:50:40;;;;;;;3.90;2.43;;;12.30;47.00;;;-142.21;70.58;112049.66;5091464;28;20478;-74
2022/04/18 00:53:08;;;;;;;3.53;2.27;;;12.30;47.30;;;-142.21;73.16;112049.66;5076511;28;20440;-74
2022/04/18 00:55:36;;;;;;;2.33;2.13;;;12.20;47.90;;;-142.21;72.47;112049.66;5086605;28;20834;-73
2022/04/18 00:58:05;;;;;;;3.30;2.50;;;12.20;47.70;;;-142.21;70.50;112049.66;5088736;28;20941;-75
2022/04/18 01:00:32;;;;;;;2.83;2.37;;;12.20;47.60;;;-142.21;68.55;112049.66;5094197;28;20458;-74
2022/04/18 01:02:59;;;;;;;2.47;2.27;;;12.20;46.80;;;-142.21;69.11;112049.66;5093768;28;20470;-74
2022/04/18 01:05:26;;;;;;;2.40;2.20;;;12.30;46.20;;;-142.21;70.31;112049.66;5084760;28;20443;-73
2022/04/18 01:07:55;;;;;;;2.20;2.00;;;12.40;45.70;;;-142.21;71.05;112049.66;5087985;28;20482;-75
2022/04/18 01:10:22;;;;;;;2.30;2.10;;;12.40;45.80;;;-142.21;73.03;112049.66;5092174;28;20517;-73
2022/04/18 01:12:52;;;;;;;3.03;2.13;;;12.30;46.10;;;-142.21;73.16;112049.66;5088631;28;20529;-74
2022/04/18 01:15:19;;;;;;;3.43;2.13;;;12.20;46.00;;;-142.21;73.88;112049.66;5090549;28;20448;-74
2022/04/18 01:17:46;;;;;;;2.73;2.13;;;12.20;46.60;;;-142.21;75.72;112049.66;5075105;28;20574;-74
2022/04/18 01:20:14;;;;;;;2.23;2.03;;;12.10;47.20;;;-142.21;74.73;112049.66;5092659;28;20451;-74
2022/04/18 01:22:44;;;;;;;2.83;2.37;;;12.10;46.80;;;-142.21;75.67;112049.66;5092386;28;20449;-74
2022/04/18 01:30:41;;;;;;;2.90;2.07;;;11.90;47.10;;;-142.21;81.81;112049.66;5085357;28;20421;-74
2022/04/18 01:33:08;;;;;;;2.30;2.10;;;11.80;47.80;;;-142.21;83.18;112049.66;5085242;28;20447;-74
2022/04/18 01:35:37;;;;;;;2.93;2.50;;;11.60;49.10;;;-142.21;81.59;112049.66;5093436;28;21038;-74
2022/04/18 01:38:08;;;;;;;2.87;2.60;;;11.50;49.00;;;-142.21;77.34;112049.66;5077484;28;20447;-74
2022/04/18 01:40:35;;;;;;;3.17;2.50;;;11.40;48.30;;;-142.21;77.90;112049.66;5078306;28;20497;-73
2022/04/18 01:43:02;;;;;;;2.60;2.40;;;11.50;47.80;;;-142.21;78.44;112049.66;5084473;28;20509;-74
2022/04/18 01:45:29;;;;;;;2.53;2.33;;;11.60;47.30;;;-142.21;80.26;112049.66;5077914;28;20439;-73
2022/04/18 01:47:57;;;;;;;2.77;2.53;;;11.60;47.30;;;-142.21;80.16;112049.66;5074219;28;20534;-74
2022/04/18 01:50:24;;;;;;;2.50;2.17;;;11.60;47.10;;;-142.21;80.23;112049.66;5077618;28;20561;-74
2022/04/18 01:52:51;;;;;;;2.87;2.20;;;11.50;47.50;;;-142.21;84.73;112049.66;5091778;28;20485;-74
2022/04/18 01:55:19;;;;;;;2.30;2.10;;;11.40;48.40;;;-142.21;83.22;112049.66;5092961;28;20538;-74
2022/04/18 01:57:46;;;;;;;2.67;2.27;;;11.40;48.90;;;-142.21;82.75;112049.66;5078958;28;20451;-74
2022/04/18 02:00:14;;;;;;;2.27;2.07;;;11.30;48.20;;;-142.21;83.15;112049.66;5092045;28;20446;-73
2022/04/18 02:02:43;;;;;;;3.83;2.40;;;11.30;48.60;;;-142.21;83.61;112049.66;5089786;28;20448;-74
2022/04/18 02:05:10;;;;;;;2.33;2.07;;;11.30;48.60;;;-142.21;84.68;112049.66;5074772;28;20542;-74
2022/04/18 02:07:38;;;;;;;3.23;2.27;;;11.20;48.60;;;-142.21;84.64;112049.66;5091229;28;20445;-74
2022/04/18 02:10:06;;;;;;;2.87;2.00;;;11.20;48.30;;;-142.21;84.02;112049.66;5091223;28;20497;-74
2022/04/18 02:12:35;;;;;;;2.43;2.23;;;11.20;48.50;;;-142.21;84.53;112049.66;5077824;28;20513;-74
2022/04/18 02:15:02;;;;;;;2.23;2.00;;;11.20;48.40;;;-142.21;84.85;112049.66;5073096;28;20955;-74
2022/04/18 02:17:29;;;;;;;4.33;2.40;;;11.20;48.40;;;-142.21;83.66;112049.66;5075957;28;20577;-74
2022/04/18 02:19:56;;;;;;;2.60;2.23;;;11.10;48.20;;;-142.21;84.27;112049.66;5077573;28;20505;-73
2022/04/18 02:22:24;;;;;;;3.83;2.40;;;11.10;48.60;;;-142.21;84.46;112049.66;5087154;28;20450;-73
2022/04/18 02:24:52;;;;;;;5.00;2.10;;;11.10;48.70;;;-142.21;84.83;112049.66;5091770;28;20450;-74
2022/04/18 02:27:19;;;;;;;2.70;2.40;;;11.10;48.90;;;-142.21;84.78;112049.66;5091503;28;20538;-73
2022/04/18 02:29:47;;;;;;;3.27;2.20;;;11.00;48.70;;;-142.21;85.88;112049.66;5086316;28;20486;-74
2022/04/18 02:34:59;;;;;;;2.57;2.37;;;11.10;49.10;;;-142.21;84.90;112049.66;5072900;28;20435;-73
2022/04/18 02:37:26;;;;;;;2.60;2.40;;;11.00;49.10;;;-142.21;85.36;112049.66;5085072;28;20454;-74
2022/04/18 02:39:54;;;;;;;3.77;2.57;;;11.00;49.20;;;-142.21;84.19;112049.66;5086446;28;20527;-74
2022/04/18 02:42:22;;;;;;;3.60;2.40;;;11.00;50.10;;;-142.21;84.57;112049.66;5048502;28;20442;-74
2022/04/18 02:44:50;;;;;;;3.10;2.60;;;10.90;49.80;;;-142.21;80.39;112049.66;5078521;28;20482;-74
2022/04/18 02:47:20;;;;;;;5.93;2.90;;;10.90;48.90;;;-142.21;77.72;112049.66;5080210;28;20512;-74
2022/04/18 02:49:50;;;;;;;3.97;2.70;;;11.00;48.50;;;-142.21;79.05;112049.66;5076970;28;20479;-74
2022/04/18 02:52:17;;;;;;;2.97;2.70;;;11.10;48.60;;;-142.21;77.20;112049.66;5072652;28;20450;-74
2022/04/18 02:54:45;;;;;;;3.60;2.80;;;11.10;48.70;;;-142.21;76.21;112049.66;5079520;28;20470;-75
2022/04/18 02:57:12;;;;;;;3.03;2.70;;;11.20;48.30;;;-142.21;78.20;112049.66;5073712;28;20476;-74
2022/04/18 02:59:40;;;;;;;2.67;2.43;;;11.30;48.40;;;-142.21;77.99;112049.66;5073806;28;20443;-74
2022/04/18 03:02:08;;;;;;;2.57;2.20;;;11.30;48.60;;;-142.21;79.86;112049.66;5074716;28;20454;-74
2022/04/18 03:04:35;;;;;;;4.77;2.60;;;11.30;48.30;;;-142.21;80.51;112049.66;5073565;28;20534;-73
2022/04/18 03:07:03;;;;;;;2.40;2.20;;;11.40;48.40;;;-142.21;81.93;112049.66;5072710;28;20516;-74
2022/04/18 03:09:30;;;;;;;2.90;2.30;;;11.30;48.20;;;-142.21;82.87;112049.66;5091337;28;21370;-74
2022/04/18 03:11:57;;;;;;;2.70;2.50;;;11.30;48.30;;;-142.21;82.47;112049.66;5086715;28;20443;-74
2022/04/18 03:14:24;;;;;;;3.97;2.47;;;11.20;47.90;;;-142.21;82.16;112049.66;5083166;28;20450;-75
2022/04/18 03:16:52;;;;;;;2.90;2.60;;;11.10;47.90;;;-142.21;81.48;112049.66;5084091;28;20450;-74
2022/04/18 03:19:21;;;;;;;3.30;2.67;;;11.00;47.70;;;-142.21;81.34;112049.66;5076129;28;20436;-74
2022/04/18 03:21:48;;;;;;;2.70;2.50;;;11.00;47.90;;;-142.21;81.90;112049.66;5098574;28;20454;-74
2022/04/18 03:24:15;;;;;;;2.97;2.60;;;11.00;48.20;;;-142.21;81.51;112049.66;5111766;28;20443;-74
2022/04/18 03:26:43;;;;;;;5.17;2.60;;;10.90;48.40;;;-142.21;81.28;112049.66;5078392;28;20530;-73
2022/04/18 03:29:10;;;;;;;3.60;2.57;;;10.90;48.50;;;-142.21;81.23;112049.66;5081654;28;20484;-75
2022/04/18 03:31:37;;;;;;;4.17;3.00;;;11.00;48.90;;;-142.21;80.04;112049.66;5115206;28;20494;-74
2022/04/18 03:34:04;;;;;;;3.27;2.80;;;11.00;48.90;;;-142.21;78.70;112049.66;5096658;28;20956;-74
2022/04/18 03:42:02;;;;;;;3.13;2.70;;;11.10;48.10;;;-142.21;81.06;112049.66;5074847;28;20774;-74
2022/04/18 03:44:29;;;;;;;3.10;2.80;;;11.00;50.00;;;-142.21;81.10;112049.66;5081694;28;20803;-74
2022/04/18 03:46:57;;;;;;;3.10;2.60;;;10.90;49.80;;;-142.21;81.85;112049.66;5093337;28;20533;-74
2022/04/18 03:49:24;;;;;;;2.53;2.33;;;10.90;50.00;;;-142.21;80.49;112049.66;5093309;28;20489;-75
2022/04/18 03:51:53;;;;;;;2.60;2.40;;;10.90;49.90;;;-142.21;83.90;112049.66;5075883;28;20479;-74
2022/04/18 03:54:20;;;;;;;3.30;2.60;;;10.80;50.30;;;-142.21;80.29;112049.66;5078099;28;20447;-74
2022/04/18 03:56:47;;;;;;;2.63;2.43;;;10.90;49.70;;;-142.21;82.02;112049.66;5075803;28;20447;-74
2022/04/18 03:59:14;;;;;;;2.67;2.47;;;10.80;49.40;;;-142.21;82.10;112049.66;5091397;28;20537;-74
2022/04/18 04:01:42;;;;;;;2.73;2.40;;;10.70;49.60;;;-142.21;84.26;112049.66;5079418;28;20443;-75
2022/04/18 04:04:09;;;;;;;2.60;2.40;;;10.70;49.80;;;-142.21;82.36;112049.66;5091855;28;20541;-74
2022/04/18 04:06:36;;;;;;;2.70;2.50;;;10.60;49.60;;;-142.21;84.36;112049.66;5095610;28;20446;-75
2022/04/18 04:09:05;;;;;;;4.47;2.60;;;10.50;50.30;;;-142.21;84.39;112049.66;5090749;28;20487;-74
2022/04/18 04:11:33;;;;;;;3.33;2.40;;;10.50;50.40;;;-142.21;83.21;112049.66;5078528;28;20524;-74
2022/04/18 04:14:00;;;;;;;2.97;2.67;;;10.50;50.20;;;-142.21;84.47;112049.66;5080388;28;20455;-73
2022/04/18 04:16:29;;;;;;;2.50;2.30;;;10.50;49.70;;;-142.21;85.77;112049.66;5086316;28;20547;-72
2022/04/18 04:18:56;;;;;;;2.77;2.37;;;10.40;50.10;;;-142.21;87.64;112049.66;5074601;28;20471;-74
2022/04/18 04:21:26;;;;;;;3.03;2.63;;;10.40;50.60;;;-142.21;87.39;112049.66;5091745;28;20521;-74
2022/04/18 04:23:53;;;;;;;3.03;2.73;;;10.40;51.00;;;-142.21;92.85;112049.66;5081795;28;20996;-74
2022/04/18 04:26:22;;;;;;;5.10;3.00;;;10.50;52.20;;;-142.21;88.69;112049.66;5076220;28;20454;-74
2022/04/18 04:28:49;;;;;;;4.43;3.43;;;10.40;50.90;;;-142.21;89.14;112049.66;5075054;28;20497;-74
2022/04/18 04:31:16;;;;;;;5.83;2.67;;;10.40;52.00;;;-142.21;88.92;112049.66;5085789;28;20450;-74
2022/04/18 04:33:44;;;;;;;4.37;2.70;;;10.50;51.00;;;-142.21;90.62;112049.66;5076304;28;20859;-74
2022/04/18 04:36:12;;;;;;;5.10;2.70;;;10.50;52.10;;;-142.21;88.77;112049.66;5089181;28;20504;-74
2022/04/18 04:38:39;;;;;;;3.40;3.00;;;10.50;51.70;;;-142.21;87.71;112049.66;5084489;28;20459;-74
2022/04/18 04:41:06;;;;;;;3.23;2.80;;;10.50;51.50;;;-142.21;88.79;112049.66;5081165;28;20526;-74
2022/04/18 04:43:36;;;;;;;4.83;2.60;;;10.50;51.40;;;-142.21;86.59;112049.66;5076066;28;20482;-75
2022/04/18 04:46:03;;;;;;;3.20;2.90;;;10.60;51.20;;;-142.21;89.61;112049.66;5095046;28;20508;-75
2022/04/18 04:48:31;;;;;;;3.87;2.73;;;10.60;51.50;;;-142.21;87.45;112049.66;5055784;28;20460;-74
2022/04/18 04:50:58;;;;;;;3.30;3.00;;;10.60;51.60;;;-142.21;85.14;112049.66;5082718;28;20830;-73
2022/04/18 04:53:25;;;;;;;3.23;2.93;;;10.60;50.60;;;-142.21;87.43;112049.66;5078954;28;21021;-74
2022/04/18 04:55:52;;;;;;;2.97;2.67;;;10.60;50.70;;;-142.21;87.31;112049.66;5088124;28;20447;-74
2022/04/18 04:58:19;;;;;;;3.93;3.17;;;10.60;51.00;;;-142.21;88.21;112049.66;5073956;28;20475;-74
2022/04/18 05:00:48;;;;;;;4.00;3.37;;;10.60;50.70;;;-142.21;87.46;112049.66;5063181;28;20781;-74
2022/04/18 05:03:16;;;;;;;4.93;3.37;;;10.60;50.60;;;-142.21;87.56;112049.66;5088099;28;20538;-73
2022/04/18 05:05:44;;;;;;;3.40;3.07;;;10.60;50.70;;;-142.21;87.47;112049.66;5090221;28;20534;-74
2022/04/18 05:08:11;;;;;;;3.83;3.03;;;10.70;50.40;;;-142.21;88.49;112049.66;5074270;28;20486;-74
2022/04/18 05:10:38;;;;;;;3.47;2.60;;;10.60;50.80;;;-142.21;87.93;112049.66;5081791;28;20569;-74
2022/04/18 05:13:05;;;;;;;4.77;3.23;;;10.60;50.70;;;-142.21;87.02;112049.66;5082042;28;20448;-75
2022/04/18 05:15:33;;;;;;;4.00;3.10;;;10.60;50.10;;;-142.21;87.26;112049.66;5088322;28;20443;-73
2022/04/18 05:18:02;;;;;;;3.70;2.80;;;10.70;50.70;;;-142.21;87.33;112049.66;5080503;28;20482;-74
2022/04/18 05:20:29;;;;;;;4.50;3.07;;;10.70;50.90;;;-142.21;86.44;112049.66;5084470;28;20458;-74
2022/04/18 05:22:56;;;;;;;4.63;3.67;;;10.70;51.00;;;-142.21;88.67;112049.66;5087247;28;20443;-74
2022/04/18 05:25:24;;;;;;;4.40;3.40;;;10.80;51.30;;;-142.21;87.89;112049.66;5076286;28;20538;-75
2022/04/18 05:27:53;;;;;;;3.83;2.90;;;10.80;51.40;;;-142.21;87.43;112049.66;5084014;28;20533;-74
2022/04/18 05:30:20;;;;;;;4.77;3.20;;;10.90;51.00;;;-142.21;87.28;112049.66;5093784;28;20537;-74
2022/04/18 05:32:47;;;;;;;3.80;2.80;;;11.00;50.90;;;-142.21;87.97;112049.66;5082209;28;20874;-73
2022/04/18 05:35:16;;;;;;;5.70;2.87;;;11.10;51.00;;;-142.21;86.29;112049.66;5097171;28;20481;-74
2022/04/18 05:37:43;;;;;;;2.83;2.53;;;11.20;50.30;;;-142.21;88.14;112049.66;5093155;28;20451;-74
2022/04/18 05:40:11;;;;;;;3.20;2.90;;;11.20;50.20;;;-142.21;87.76;112049.66;5094233;28;20505;-74
2022/04/18 05:42:39;;;;;;;3.80;3.03;;;11.30;51.40;;;-142.21;85.22;112049.66;5078875;28;20454;-74
2022/04/18 05:45:10;;;;;;;2.87;2.37;;;11.40;51.10;;;-142.21;80.92;112049.66;5091449;28;20492;-74
2022/04/18 05:47:37;;;;;;;2.77;2.53;;;11.40;51.20;;;-142.21;80.34;112049.66;5085430;28;20545;-74
2022/04/18 05:50:06;;;;;;;3.60;3.10;;;11.40;50.30;;;-142.21;82.61;112049.66;5079604;28;21393;-74
2022/04/18 05:52:35;;;;;;;3.60;3.10;;;11.50;50.80;;;-142.21;84.71;112049.66;5091699;28;20927;-74
2022/04/18 05:55:02;;;;;;;5.37;3.17;;;11.50;50.80;;;-142.21;85.95;112049.66;5091480;28;20454;-74
2022/04/18 05:57:29;;;;;;;4.50;2.80;;;11.70;50.50;;;-142.21;82.44;112049.66;5091854;28;20484;-74
2022/04/18 05:59:56;;;;;;;3.97;3.57;;;11.70;50.50;;;-142.21;85.99;112049.66;5092100;28;20518;-74
2022/04/18 06:02:23;;;;;;;3.80;3.23;;;11.90;51.10;;;-142.21;84.65;112049.66;5091352;28;20534;-73
2022/04/18 06:04:50;;;;;;;3.13;2.83;;;11.90;50.40;;;-142.21;81.95;112049.66;5088595;28;20550;-74
2022/04/18 06:07:18;;;;;;;4.03;3.20;;;12.10;49.40;;;-142.21;82.62;112049.66;5085951;28;20529;-74
2022/04/18 06:09:46;;;;;;;3.47;3.13;;;12.20;49.90;;;-142.21;78.93;112049.66;5089732;28;20561;-74
2022/04/18 06:12:13;;;;;;;3.87;3.20;;;12.30;49.00;;;-142.21;81.59;112049.66;5092881;28;20842;-74
2022/04/18 06:14:40;;;;;;;3.00;2.70;;;12.30;49.30;;;-142.21;85.96;112049.66;5076846;28;20541;-75
2022/04/18 06:17:07;;;;;;;2.97;2.67;;;12.40;49.70;;;-142.21;81.25;112049.66;5076816;28;20482;-74
2022/04/18 06:19:35;;;;;;;3.30;3.00;;;12.50;49.70;;;-142.21;77.11;112049.66;5091211;28;20492;-74
2022/04/18 06:22:02;;;;;;;3.50;3.20;;;12.60;49.10;;;-142.21;76.88;112049.66;5090936;28;20862;-74
2022/04/18 06:24:29;;;;;;;3.27;2.97;;;12.60;49.30;;;-142.21;67.17;112049.66;5090577;28;20457;-74
2022/04/18 06:26:58;;;;;;;3.20;2.70;;;12.60;46.90;;;-142.21;67.91;112049.66;5091794;28;20469;-74
2022/04/18 06:29:25;;;;;;;3.20;2.90;;;12.40;48.30;;;-142.21;65.70;112049.66;5072172;28;21014;-74
2022/04/18 06:31:53;;;;;;;4.70;3.00;;;12.40;47.60;;;-142.21;72.87;112049.66;5081679;28;20518;-75
2022/04/18 06:34:21;;;;;;;3.30;2.90;;;12.60;47.60;;;-142.21;65.67;112049.66;5088123;28;20949;-74
2022/04/18 06:36:48;;;;;;;5.17;2.67;;;12.60;48.00;;;-142.21;67.59;112049.66;5079730;28;20450;-72
2022/04/18 06:39:15;;;;;;;3.50;3.07;;;12.60;49.10;;;-142.21;66.89;112049.66;5080960;28;20444;-74
2022/04/18 06:41:43;;;;;;;3.43;2.87;;;12.70;47.80;;;-142.21;64.65;112049.66;5078228;28;20449;-75
2022/04/18 06:44:11;;;;;;;4.13;2.93;;;12.80;47.10;;;-142.21;68.57;112049.66;5066503;28;20436;-74
2022/04/18 06:46:40;;;;;;;6.07;2.83;;;13.00;48.30;;;-142.21;58.27;112049.66;5071954;28;20455;-74
2022/04/18 06:49:07;;;;;;;4.13;2.83;;;13.00;47.60;;;-142.21;58.35;112049.66;5085249;28;20470;-74
2022/04/18 06:51:34;;;;;;;3.77;2.60;;;13.10;46.90;;;-142.21;57.08;112049.66;5072142;28;20518;-74
2022/04/18 06:54:02;;;;;;;2.97;2.60;;;13.10;46.00;;;-142.21;56.54;112049.66;5077488;28;20934;-74
2022/04/18 06:59:15;;;;;;;3.53;2.70;;;13.30;45.20;;;-142.21;57.50;112049.66;5090623;28;20438;-74
2022/04/18 07:01:42;;;;;;;5.17;3.17;;;13.30;46.00;;;-142.21;60.95;112049.66;5076252;28;20553;-74
2022/04/18 07:04:09;;;;;;;3.30;2.67;;;13.60;47.10;;;-142.21;56.46;112049.66;5092104;28;20482;-73
2022/04/18 07:06:36;;;;;;;3.40;2.97;;;13.60;46.30;;;-142.21;52.92;112049.66;5079070;28;20530;-74
2022/04/18 07:09:03;;;;;;;4.30;2.60;;;13.50;46.30;;;-142.21;52.37;112049.66;5088197;28;20867;-74
2022/04/18 07:11:31;;;;;;;2.97;2.67;;;13.60;45.40;;;-142.21;52.52;112049.66;5089479;28;20561;-74
2022/04/18 07:13:58;;;;;;;3.10;2.70;;;13.70;45.60;;;-142.21;51.22;112049.66;5089825;28;20446;-75
2022/04/18 07:16:29;;;;;;;3.37;3.07;;;13.70;46.30;;;-142.21;51.67;112049.66;5081321;28;20458;-74
2022/04/18 07:18:57;;;;;;;4.27;2.63;;;13.80;45.40;;;-142.21;49.52;112049.66;5071182;28;20471;-74
2022/04/18 07:21:25;;;;;;;3.77;2.90;;;13.80;45.70;;;-142.21;48.74;112049.66;5077312;28;20439;-73
2022/04/18 07:23:53;;;;;;;4.03;2.83;;;13.90;44.70;;;-142.21;50.39;112049.66;5073896;28;20448;-75
2022/04/18 07:26:21;;;;;;;3.33;2.63;;;14.00;45.50;;;-142.21;46.61;112049.66;5072336;28;20444;-74
2022/04/18 07:28:49;;;;;;;3.30;2.80;;;14.20;43.30;;;-142.21;48.38;112049.66;5088757;28;20943;-74
2022/04/18 07:31:16;;;;;;;3.13;2.80;;;14.20;44.90;;;-142.21;47.32;112049.66;5081431;28;21056;-72
2022/04/18 07:33:45;;;;;;;4.70;2.90;;;14.30;45.00;;;-142.21;44.59;112049.66;5089972;28;20503;-74
2022/04/18 07:36:13;;;;;;;3.87;3.00;;;14.30;43.90;;;-142.21;48.28;112049.66;5089430;28;20530;-73
2022/04/18 07:38:51;;;;;;;3.23;2.80;;;14.50;46.40;;;-142.21;45.50;112049.66;5084357;28;20539;-74
2022/04/18 07:41:21;;;;;;;3.43;2.83;;;14.70;45.00;;;-142.21;44.74;112049.66;5081594;28;20431;-74
2022/04/18 07:43:50;;;;;;;3.23;2.80;;;14.70;44.20;;;-142.21;45.28;112049.66;5089821;28;20542;-74
2022/04/18 07:46:18;;;;;;;3.53;2.70;;;14.70;44.80;;;-142.21;45.38;112049.66;5077046;28;20455;-73
2022/04/18 07:48:51;;;;;;;4.83;3.37;;;14.60;44.30;;;-142.21;46.89;112049.66;5077688;28;20463;-74
2022/04/18 07:51:42;;;;;;;3.80;2.80;;;14.70;44.50;;;-142.21;47.20;112049.66;5077681;28;20474;-73
2022/04/18 07:54:14;;;;;;;3.50;2.93;;;14.80;45.20;;;-142.21;46.65;112049.66;5086260;28;20438;-73
2022/04/18 07:56:43;;;;;;;4.10;3.10;;;15.00;45.80;;;-142.21;42.90;112049.66;5091003;28;20431;-74
2022/04/18 07:59:11;;;;;;;4.23;3.00;;;14.80;43.80;;;-142.21;45.84;112049.66;5089569;28;20496;-74
2022/04/18 08:01:38;;;;;;;3.00;2.70;;;15.00;44.80;;;-142.21;43.82;112049.66;5091201;28;20530;-73
2022/04/18 08:04:07;;;;;;;3.33;2.97;;;15.10;43.30;;;-142.21;44.87;112049.66;5091497;28;20435;-74
2022/04/18 08:06:35;;;;;;;3.00;2.63;;;15.20;44.40;;;-142.21;50.01;112049.66;5052747;28;20439;-74
2022/04/18 08:09:03;;;;;;;4.37;3.30;;;15.30;45.20;;;-142.21;44.01;112049.66;5091140;28;20479;-74
2022/04/18 08:11:30;;;;;;;3.67;2.87;;;15.30;43.50;;;-142.21;44.18;112049.66;5089590;28;20478;-74
2022/04/18 08:13:57;;;;;;;4.60;2.70;;;15.50;42.90;;;-142.21;41.90;112049.66;5090294;28;20485;-74
2022/04/18 08:16:25;;;;;;;3.37;2.87;;;15.60;41.40;;;-142.21;42.76;112049.66;5089580;28;20457;-74
2022/04/18 08:18:52;;;;;;;3.37;2.57;;;15.50;42.90;;;-142.21;43.68;112049.66;5090190;28;20470;-73
2022/04/18 08:21:21;;;;;;;2.80;2.50;;;15.50;43.80;;;-142.21;44.05;112049.66;5089893;28;20460;-74
2022/04/18 08:23:51;;;;;;;3.80;3.00;;;15.60;43.40;;;-142.21;45.04;112049.66;5089198;28;20528;-74
2022/04/18 08:26:19;;;;;;;3.10;2.80;;;15.70;44.80;;;-142.21;47.16;112049.66;5092129;28;20852;-74
2022/04/18 08:28:47;;;;;;;4.30;2.87;;;15.80;45.70;;;-142.21;42.92;112049.66;5092541;28;20450;-73
2022/04/18 08:31:14;;;;;;;2.80;2.50;;;15.80;43.00;;;-142.21;44.28;112049.66;5076327;28;20593;-74
2022/04/18 08:33:41;;;;;;;3.87;3.10;;;15.90;43.30;;;-142.21;42.76;112049.66;5080234;28;20447;-74
2022/04/18 08:36:08;;;;;;;4.20;3.03;;;16.10;42.70;;;-142.21;43.67;112049.66;5056330;28;20462;-75
2022/04/18 08:38:37;;;;;;;4.60;2.77;;;16.10;42.70;;;-142.21;42.99;112049.66;5088732;28;20803;-74
2022/04/18 08:41:05;;;;;;;5.00;2.63;;;16.20;42.60;;;-142.21;42.10;112049.66;5095473;28;20843;-74
2022/04/18 08:43:33;;;;;;;3.77;2.97;;;16.30;41.80;;;-142.21;41.51;112049.66;5093438;28;20448;-74
2022/04/18 08:46:05;;;;;;;3.20;2.90;;;16.50;42.00;;;-142.21;42.04;112049.66;5080256;28;20447;-74
2022/04/18 08:54:08;;;;;;;6.30;3.07;;;17.20;41.80;;;-142.21;40.87;112049.66;5074247;28;20431;-75
2022/04/18 08:56:35;;;;;;;2.97;2.67;;;17.60;41.40;;;-142.21;39.71;112049.66;5075851;28;20959;-75
2022/04/18 08:59:03;;;;;;;3.00;2.70;;;18.10;40.00;;;-142.21;36.46;112049.66;5086759;28;20445;-75
2022/04/18 09:01:30;;;;;;;3.17;2.80;;;18.30;38.20;;;-142.21;36.49;112049.66;5074787;28;20467;-76
2022/04/18 09:03:59;;;;;;;3.10;2.57;;;18.20;37.90;;;-142.21;34.98;112049.66;5093771;28;20947;-78
2022/04/18 09:06:26;;;;;;;4.60;2.73;;;18.50;38.90;;;-142.21;31.73;112049.66;5092217;28;20482;-78
2022/04/18 09:08:57;;;;;;;4.43;3.03;;;21.30;36.80;;;-142.21;28.24;112049.66;5073894;28;20490;-79
2022/04/18 09:11:32;;;;;;;3.00;2.70;;;25.10;32.20;;;-142.21;26.77;112049.66;5086741;28;20238;-77
2022/04/18 09:14:08;;;;;;;4.17;3.07;;;27.40;27.90;;;-142.21;25.15;112049.66;5086583;28;20649;-77
2022/04/18 09:16:39;;;;;;;3.20;2.80;;;29.20;26.50;;;-142.21;25.89;112049.66;5085256;28;20233;-77
2022/04/18 09:19:12;;;;;;;3.93;3.20;;;30.80;25.60;;;-142.21;28.86;112049.66;5053455;28;20661;-78
2022/04/18 09:21:44;;;;;;;2.97;2.70;;;32.10;26.10;;;-142.21;28.08;112049.66;5048026;28;20277;-78
2022/04/18 09:24:31;;;;;;;3.07;2.57;;;33.00;22.60;;;-142.21;29.63;112049.66;5053380;28;20212;-78
2022/04/18 09:27:07;;;;;;;3.20;2.90;;;33.10;23.60;;;-142.21;30.21;112049.66;5053516;28;20627;-78
2022/04/18 09:29:38;;;;;;;3.33;3.03;;;30.20;24.90;;;-142.21;30.69;112049.66;5054148;28;20204;-80
2022/04/18 09:32:09;;;;;;;3.40;2.70;;;27.80;27.40;;;-142.21;31.16;112049.66;5053141;28;20619;-79
2022/04/18 09:34:36;;;;;;;3.70;2.80;;;26.30;28.50;;;-142.21;31.62;112049.66;5053662;28;20820;-79
2022/04/18 09:37:14;;;;;;;3.30;2.73;;;25.00;29.90;;;-142.21;33.64;112049.66;5053333;28;20233;-79
2022/04/18 09:39:43;;;;;;;3.07;2.70;;;24.10;31.50;;;-142.21;32.20;112049.66;5035467;28;20285;-79
2022/04/18 09:42:14;;;;;;;4.13;2.37;;;23.50;31.90;;;-142.21;30.94;112049.66;5033307;28;20209;-79
2022/04/18 09:44:42;;;;;;;3.33;2.43;;;22.90;31.60;;;-142.21;30.87;112049.66;5033866;28;20192;-79
2022/04/18 09:47:16;;;;;;;2.60;2.40;;;22.00;32.00;;;-142.21;29.89;112049.66;5033319;28;20217;-80
2022/04/18 09:49:44;;;;;;;2.67;2.47;;;21.80;30.50;;;-142.21;30.67;112049.66;5045727;28;21906;-78
2022/04/18 09:52:14;;;;;;;3.60;2.80;;;21.80;31.60;;;-142.21;31.50;112049.66;5046165;28;20315;-80
2022/04/18 09:54:45;;;;;;;4.27;2.33;;;21.80;32.90;;;-142.21;31.26;112049.66;5046020;28;20297;-79
2022/04/18 09:57:14;;;;;;;2.57;2.30;;;21.70;33.50;;;-142.21;31.22;112049.66;5047843;28;20245;-78
2022/04/18 09:59:42;;;;;;;3.53;2.37;;;21.60;34.30;;;-142.21;31.81;112049.66;5033428;28;20671;-79
2022/04/18 10:02:14;;;;;;;3.00;2.70;;;21.60;34.70;;;-142.21;30.67;112049.66;5033780;28;20285;-76
2022/04/18 10:04:42;;;;;;;3.50;2.60;;;21.70;32.90;;;-142.21;31.95;112049.66;5035269;28;20199;-76
2022/04/18 10:07:10;;;;;;;3.23;2.70;;;21.70;36.00;;;-142.21;31.07;112049.66;5045942;28;20642;-75
2022/04/18 10:09:40;;;;;;;3.60;2.30;;;21.80;33.40;;;-142.21;31.26;112049.66;5034499;28;20576;-78
2022/04/18 10:12:10;;;;;;;4.00;2.73;;;21.70;34.40;;;-142.21;30.74;112049.66;5038934;28;20222;-74
2022/04/18 10:14:41;;;;;;;4.03;2.60;;;21.80;33.10;;;-142.21;29.76;112049.66;5033433;28;20214;-78
2022/04/18 10:17:11;;;;;;;3.53;2.77;;;21.80;33.20;;;-142.21;30.39;112049.66;5057627;28;20586;-77
2022/04/18 10:20:10;;;;;;;3.17;2.23;;;21.80;33.00;;;-142.21;29.78;112049.66;5055986;28;20208;-77
2022/04/18 10:23:07;;;;;;;2.43;2.23;;;21.70;34.20;;;-142.21;29.18;112049.66;5074448;28;20198;-79
2022/04/18 10:26:28;;;;;;;3.23;2.70;;;21.70;32.60;;;-142.21;29.39;112049.66;5093017;28;20251;-79
2022/04/18 10:29:03;;;;;;;3.10;2.80;;;21.50;32.00;;;-142.21;30.91;112049.66;5088235;28;20291;-77